createdAt,value
2022-08-17T06:40:01.681Z,22.30
2022-08-17T06:41:27.227Z,22.61
2022-08-17T06:43:06.002Z,22.65
2022-08-17T06:44:49.709Z,22.34
2022-08-17T06:45:54.191Z,22.35
2022-08-17T06:47:06.007Z,22.60
2022-08-17T06:48:39.607Z,22.87
2022-08-17T07:13:14.152Z,23.25
2022-08-17T07:14:38.009Z,23.35
2022-08-17T07:15:42.963Z,22.97
2022-08-17T07:16:48.810Z,22.78
2022-08-17T07:17:50.541Z,23.16
2022-08-17T07:18:53.438Z,23.48
2022-08-17T07:20:05.732Z,23.72
2022-08-17T07:21:19.132Z,23.84
2022-08-17T07:22:50.511Z,23.95
2022-08-17T07:24:26.234Z,24.00
2022-08-17T07:25:31.045Z,24.10
2022-08-17T07:26:32.622Z,24.27
2022-08-17T07:27:40.170Z,24.48
2022-08-17T07:28:44.154Z,24.44
2022-08-17T07:51:36.586Z,23.48
2022-08-17T07:52:48.114Z,23.30
2022-08-17T07:54:12.872Z,23.43
2022-08-17T07:55:34.823Z,23.29
2022-08-17T07:56:41.275Z,23.21
2022-08-17T07:57:42.842Z,23.30
2022-08-17T08:21:42.652Z,23.04
2022-08-17T08:22:47.548Z,23.02
2022-08-17T08:23:59.535Z,22.92
2022-08-17T08:25:11.340Z,22.87
2022-08-17T09:09:43.419Z,21.41
2022-08-17T09:10:44.804Z,21.44
2022-08-17T09:12:19.684Z,21.34
2022-08-17T09:13:46.382Z,21.50
2022-08-17T10:02:51.443Z,20.41
2022-08-17T10:04:28.901Z,20.31
2022-08-17T10:50:56.089Z,19.12
2022-08-17T10:52:00.393Z,19.09
2022-08-17T10:53:01.926Z,19.08
2022-08-17T10:54:06.222Z,19.13
2022-08-17T10:55:14.473Z,19.13
2022-08-17T10:56:18.486Z,19.29
2022-08-17T11:13:38.777Z,20.11
2022-08-17T11:14:49.375Z,20.01
2022-08-17T11:15:59.937Z,20.23
2022-08-17T11:17:21.120Z,20.49
2022-08-17T11:18:42.890Z,20.75
2022-08-17T11:19:53.323Z,20.98
2022-08-17T11:34:38.950Z,21.95
2022-08-17T11:35:51.135Z,21.96
2022-08-17T11:37:29.353Z,21.96
2022-08-17T11:38:47.556Z,22.15
2022-08-17T11:40:00.785Z,21.90
2022-08-17T11:41:08.154Z,21.63
2022-08-17T11:42:26.611Z,21.98
2022-08-17T11:43:45.678Z,21.97
2022-08-17T11:59:44.866Z,21.70
2022-08-17T12:00:46.241Z,21.90
2022-08-17T12:01:56.698Z,21.96
2022-08-17T12:03:38.969Z,21.84
2022-08-17T12:05:27.581Z,22.12
2022-08-17T12:06:39.081Z,22.33
2022-08-17T12:24:36.385Z,22.46
2022-08-17T12:26:10.193Z,22.54
2022-08-17T12:27:13.157Z,22.53
2022-08-17T12:28:27.797Z,22.55
2022-08-17T12:29:35.646Z,22.55
2022-08-17T12:41:38.833Z,22.29
2022-08-17T12:42:41.381Z,22.24
2022-08-17T12:43:42.849Z,22.41
2022-08-17T12:44:50.446Z,22.49
2022-08-17T12:45:58.053Z,22.62
2022-08-17T12:47:03.198Z,22.90
2022-08-17T12:48:12.290Z,22.95
2022-08-17T12:49:26.458Z,23.21
2022-08-17T12:50:30.281Z,23.47
2022-08-17T12:51:31.807Z,23.82
2022-08-17T12:52:37.406Z,23.96
2022-08-17T12:53:40.769Z,24.04
2022-08-17T12:54:55.745Z,23.86
2022-08-17T12:56:01.829Z,24.31
2022-08-17T12:57:12.573Z,24.45
2022-08-17T12:58:22.044Z,24.92
2022-08-17T12:59:29.835Z,25.86
2022-08-17T13:00:47.554Z,26.35
2022-08-17T13:01:50.776Z,26.93
2022-08-17T13:02:58.687Z,27.30
2022-08-17T13:04:00.833Z,27.08
2022-08-17T13:05:02.820Z,27.39
2022-08-17T13:06:11.021Z,26.82
2022-08-17T13:07:14.214Z,27.08
2022-08-17T13:08:19.904Z,27.47
2022-08-17T13:09:35.830Z,27.66
2022-08-17T13:10:41.505Z,27.70
2022-08-17T13:11:51.658Z,28.11
2022-08-17T13:12:53.664Z,28.50
2022-08-17T13:13:56.358Z,28.81
2022-08-17T13:14:58.569Z,27.83
2022-08-17T13:16:06.608Z,27.44
2022-08-17T13:17:13.306Z,27.72
2022-08-17T13:18:39.967Z,28.58
2022-08-17T13:19:49.389Z,28.22
2022-08-17T13:20:55.277Z,27.85
2022-08-17T13:22:01.989Z,27.99
2022-08-17T13:23:12.495Z,27.95
2022-08-17T13:24:25.213Z,27.93
2022-08-17T13:25:27.924Z,28.27
2022-08-17T13:26:35.378Z,27.94
2022-08-17T13:27:41.784Z,27.93
2022-08-17T13:28:51.741Z,28.64
2022-08-17T13:29:57.916Z,28.09
2022-08-17T13:31:21.138Z,28.37
2022-08-17T13:32:33.506Z,27.46
2022-08-17T13:33:44.977Z,28.05
2022-08-17T13:35:15.557Z,28.28
2022-08-17T13:36:33.341Z,27.30
2022-08-17T13:37:36.902Z,27.40
2022-08-17T13:38:49.675Z,27.98
2022-08-17T13:39:52.738Z,27.57
2022-08-17T13:40:54.381Z,27.76
2022-08-17T13:41:56.020Z,27.35
2022-08-17T13:42:58.472Z,26.83
2022-08-17T13:44:00.721Z,26.52
2022-08-17T13:45:02.193Z,25.81
2022-08-17T13:46:31.262Z,26.03
2022-08-17T13:47:34.209Z,26.31
2022-08-17T13:48:35.922Z,25.74
2022-08-17T13:49:46.495Z,25.89
2022-08-17T13:50:56.335Z,26.21
2022-08-17T13:51:57.846Z,26.79
2022-08-17T13:52:59.704Z,26.41
2022-08-17T13:54:04.018Z,27.09
2022-08-17T13:55:24.490Z,27.20
2022-08-17T13:56:37.354Z,27.01
2022-08-17T13:57:46.435Z,26.50
2022-08-17T13:58:55.421Z,26.63
2022-08-17T14:00:17.392Z,26.44
2022-08-17T14:01:37.571Z,27.34
2022-08-17T14:02:39.046Z,27.28
2022-08-17T14:03:40.976Z,27.54
2022-08-17T14:04:47.713Z,27.62
2022-08-17T14:05:50.608Z,27.78
2022-08-17T14:06:56.931Z,28.12
2022-08-17T14:08:06.400Z,28.01
2022-08-17T14:09:08.997Z,28.49
2022-08-17T14:10:17.444Z,28.80
2022-08-17T14:11:19.794Z,28.62
2022-08-17T14:12:24.969Z,28.53
2022-08-17T14:13:26.414Z,28.64
2022-08-17T14:14:29.263Z,27.61
2022-08-17T14:15:55.621Z,27.65
2022-08-17T14:16:54.143Z,28.61
2022-08-17T14:17:56.014Z,29.06
2022-08-17T14:18:57.766Z,28.71
2022-08-17T14:19:59.318Z,29.27
2022-08-17T14:21:00.739Z,29.13
2022-08-17T14:22:02.778Z,29.87
2022-08-17T14:23:04.332Z,30.28
2022-08-17T14:24:13.183Z,30.54
2022-08-17T14:25:18.860Z,30.87
2022-08-17T14:26:20.299Z,30.21
2022-08-17T14:27:27.977Z,30.95
2022-08-17T14:28:29.411Z,31.42
2022-08-17T14:29:33.168Z,31.41
2022-08-17T14:30:35.682Z,31.56
2022-08-17T14:31:37.761Z,31.37
2022-08-17T14:32:41.319Z,31.18
2022-08-17T14:33:42.722Z,31.12
2022-08-17T14:34:45.187Z,30.77
2022-08-17T14:35:47.327Z,30.04
2022-08-17T14:36:49.001Z,30.36
2022-08-17T14:37:52.379Z,30.44
2022-08-17T14:38:54.069Z,30.20
2022-08-17T14:39:57.836Z,29.76
2022-08-17T14:40:59.355Z,29.62
2022-08-17T14:42:01.390Z,29.58
2022-08-17T14:43:02.849Z,29.31
2022-08-17T14:44:04.377Z,29.12
2022-08-17T14:45:30.044Z,29.18
2022-08-17T14:46:31.031Z,28.46
2022-08-17T14:47:33.746Z,28.07
2022-08-17T14:48:38.299Z,28.37
2022-08-17T14:49:39.707Z,28.46
2022-08-17T14:50:43.033Z,28.22
2022-08-17T14:51:44.783Z,28.33
2022-08-17T14:52:47.648Z,27.81
2022-08-17T14:53:50.062Z,27.48
2022-08-17T14:54:52.820Z,27.42
2022-08-17T14:55:54.244Z,27.69
2022-08-17T14:57:11.528Z,27.85
2022-08-17T14:58:17.985Z,27.88
2022-08-17T14:59:19.393Z,27.60
2022-08-17T15:00:20.905Z,27.46
2022-08-17T15:01:24.974Z,27.30
2022-08-17T15:02:30.371Z,27.15
2022-08-17T15:03:32.418Z,27.26
2022-08-17T15:04:33.807Z,27.03
2022-08-17T15:05:37.726Z,27.07
2022-08-17T15:06:39.129Z,27.16
2022-08-17T15:07:40.537Z,27.18
2022-08-17T15:08:42.235Z,26.99
2022-08-17T15:09:45.727Z,27.04
2022-08-17T15:10:49.114Z,27.06
2022-08-17T15:11:51.116Z,26.65
2022-08-17T15:12:52.638Z,26.49
2022-08-17T15:13:54.047Z,26.70
2022-08-17T15:14:55.426Z,26.34
2022-08-17T15:15:56.981Z,26.43
2022-08-17T15:16:59.613Z,26.51
2022-08-17T15:18:02.422Z,26.53
2022-08-17T15:19:06.621Z,26.19
2022-08-17T15:20:14.591Z,26.30
2022-08-17T15:21:16.520Z,26.33
2022-08-17T15:22:23.563Z,26.43
2022-08-17T15:23:27.083Z,26.58
2022-08-17T15:24:28.517Z,26.72
2022-08-17T15:25:32.077Z,26.72
2022-08-17T15:26:33.533Z,26.77
2022-08-17T15:27:35.371Z,26.92
2022-08-17T15:28:37.715Z,26.75
2022-08-17T15:29:39.353Z,26.48
2022-08-17T15:30:43.225Z,26.34
2022-08-17T15:31:44.693Z,26.49
2022-08-17T15:32:53.910Z,26.37
2022-08-17T15:33:57.305Z,26.18
2022-08-17T15:35:01.156Z,25.91
2022-08-17T15:36:06.702Z,25.87
2022-08-17T15:37:08.097Z,25.92
2022-08-17T15:38:12.347Z,25.89
2022-08-17T15:39:13.907Z,26.05
2022-08-17T15:40:20.777Z,26.05
2022-08-17T15:41:22.178Z,26.19
2022-08-17T15:42:23.649Z,26.35
2022-08-17T15:43:28.492Z,26.46
2022-08-17T15:44:34.913Z,26.47
2022-08-17T15:45:36.945Z,26.54
2022-08-17T15:46:38.401Z,26.60
2022-08-17T15:47:41.058Z,26.61
2022-08-17T15:48:44.685Z,26.68
2022-08-17T15:49:46.704Z,26.67
2022-08-17T15:50:48.156Z,26.67
2022-08-17T15:51:49.558Z,26.68
2022-08-17T15:52:56.738Z,26.68
